createdAt,value
2022-09-24T00:03:16.202Z,8.30
2022-09-24T00:08:20.163Z,8.30
2022-09-24T00:13:21.963Z,8.40
2022-09-24T00:18:23.695Z,8.30
2022-09-24T00:23:25.592Z,8.30
2022-09-24T00:28:27.617Z,8.20
2022-09-24T00:33:29.364Z,8.10
2022-09-24T00:38:34.852Z,8.10
2022-09-24T00:43:39.048Z,8.00
2022-09-24T00:48:42.882Z,8.00
2022-09-24T00:53:47.817Z,8.10
2022-09-24T00:58:53.375Z,8.10
2022-09-24T01:03:57.347Z,8.20
2022-09-24T01:09:00.395Z,8.30
2022-09-24T01:14:08.994Z,8.30
2022-09-24T01:19:22.770Z,8.30
2022-09-24T01:24:28.192Z,8.30
2022-09-24T01:29:43.405Z,8.30
2022-09-24T01:34:58.556Z,8.30
2022-09-24T01:40:01.562Z,8.20
2022-09-24T01:45:04.298Z,8.10
2022-09-24T01:50:09.054Z,8.10
2022-09-24T01:55:17.648Z,8.10
2022-09-24T02:00:21.253Z,8.00
2022-09-24T02:05:29.401Z,8.00
2022-09-24T02:10:37.960Z,8.00
2022-09-24T02:15:45.359Z,8.10
2022-09-24T02:20:48.448Z,8.10
2022-09-24T02:25:58.373Z,8.00
2022-09-24T02:31:22.730Z,8.10
2022-09-24T02:36:25.042Z,8.10
2022-09-24T02:41:28.013Z,8.10
2022-09-24T02:46:29.897Z,8.10
2022-09-24T02:51:31.754Z,8.00
2022-09-24T02:56:33.628Z,8.10
2022-09-24T03:01:36.268Z,8.10
2022-09-24T03:06:38.220Z,8.00
2022-09-24T03:11:40.333Z,8.00
2022-09-24T03:16:42.420Z,7.90
2022-09-24T03:21:44.364Z,7.80
2022-09-24T03:26:46.158Z,7.80
2022-09-24T03:31:47.973Z,7.80
2022-09-24T03:36:49.834Z,7.70
2022-09-24T03:41:51.607Z,7.60
2022-09-24T03:46:53.395Z,7.50
2022-09-24T03:51:55.230Z,7.60
2022-09-24T03:56:56.992Z,7.60
2022-09-24T04:01:58.893Z,7.70
2022-09-24T04:07:01.130Z,7.70
2022-09-24T04:12:03.265Z,7.60
2022-09-24T04:17:05.194Z,7.60
2022-09-24T04:22:07.012Z,7.60
2022-09-24T04:27:08.770Z,7.60
2022-09-24T04:32:10.569Z,7.60
2022-09-24T04:37:12.455Z,7.60
2022-09-24T04:42:18.234Z,7.70
2022-09-24T04:47:20.017Z,7.60
2022-09-24T04:52:26.771Z,7.60
2022-09-24T04:57:35.982Z,7.70
2022-09-24T05:02:37.835Z,7.80
2022-09-24T05:07:40.322Z,7.80
2022-09-24T05:12:42.101Z,7.80
2022-09-24T05:17:44.184Z,7.90
2022-09-24T05:22:47.638Z,7.90
2022-09-24T05:27:54.600Z,7.90
2022-09-24T05:32:56.385Z,8.00
2022-09-24T05:37:58.217Z,8.10
2022-09-24T05:43:01.789Z,8.10
2022-09-24T05:48:04.225Z,8.20
2022-09-24T05:53:06.285Z,8.30
2022-09-24T05:58:10.566Z,8.40
2022-09-24T06:03:14.315Z,8.50
2022-09-24T06:08:17.614Z,8.60
2022-09-24T06:13:20.857Z,8.70
2022-09-24T06:18:22.716Z,8.80
2022-09-24T06:23:24.534Z,9.00
2022-09-24T06:28:26.462Z,9.20
2022-09-24T06:33:30.425Z,9.40
2022-09-24T06:38:32.975Z,9.70
2022-09-24T06:43:35.054Z,10.00
2022-09-24T06:48:38.216Z,10.20
2022-09-24T06:53:40.081Z,10.40
2022-09-24T06:58:41.822Z,10.50
2022-09-24T07:03:43.582Z,10.70
2022-09-24T07:08:50.081Z,10.80
2022-09-24T07:13:52.630Z,11.00
2022-09-24T07:18:54.373Z,11.20
2022-09-24T07:23:58.597Z,11.60
2022-09-24T07:29:00.618Z,11.90
2022-09-24T07:34:02.422Z,12.20
2022-09-24T07:39:04.922Z,12.40
2022-09-24T07:44:07.825Z,12.40
2022-09-24T07:49:09.661Z,12.50
2022-09-24T07:54:16.339Z,12.60
2022-09-24T07:59:20.444Z,12.60
2022-09-24T08:04:22.299Z,12.60
2022-09-24T08:09:24.157Z,12.60
2022-09-24T08:14:25.906Z,12.70
2022-09-24T08:19:28.245Z,12.70
2022-09-24T08:24:30.985Z,12.70
2022-09-24T08:29:33.186Z,12.80
2022-09-24T08:34:38.577Z,12.80
2022-09-24T08:39:40.489Z,12.70
2022-09-24T08:45:03.715Z,12.70
2022-09-24T08:50:15.634Z,12.70
2022-09-24T08:55:25.823Z,12.70
2022-09-24T09:00:31.708Z,12.70
2022-09-24T09:05:49.441Z,12.70
2022-09-24T09:10:58.487Z,12.70
2022-09-24T09:16:20.578Z,12.70
2022-09-24T09:21:33.057Z,12.70
2022-09-24T09:26:35.095Z,12.80
2022-09-24T09:31:56.678Z,12.80
2022-09-24T09:37:15.073Z,12.80
2022-09-24T09:42:40.393Z,12.80
2022-09-24T09:47:54.013Z,12.90
2022-09-24T09:52:56.215Z,12.90
2022-09-24T09:58:16.384Z,13.00
2022-09-24T10:03:33.748Z,13.10
2022-09-24T10:08:35.560Z,13.20
2022-09-24T10:13:37.329Z,13.30
2022-09-24T10:18:39.171Z,13.50
2022-09-24T10:23:47.237Z,13.60
2022-09-24T10:29:08.690Z,13.80
2022-09-24T10:34:26.775Z,13.90
2022-09-24T10:39:29.635Z,14.00
2022-09-24T10:44:37.094Z,14.10
2022-09-24T10:49:57.962Z,14.20
2022-09-24T10:55:31.502Z,14.10
2022-09-24T11:01:01.112Z,14.10
2022-09-24T11:06:33.115Z,14.20
2022-09-24T11:11:59.087Z,14.20
2022-09-24T11:17:22.345Z,14.30
2022-09-24T11:22:27.175Z,14.30
2022-09-24T11:28:05.209Z,14.30
2022-09-24T11:33:22.107Z,14.30
2022-09-24T11:38:50.798Z,14.20
2022-09-24T11:44:02.464Z,14.20
2022-09-24T11:49:07.658Z,14.20
2022-09-24T11:54:20.904Z,14.20
2022-09-24T11:59:53.726Z,14.20
2022-09-24T12:05:35.192Z,14.30
2022-09-24T12:10:47.757Z,14.30
2022-09-24T12:15:56.426Z,14.30
2022-09-24T12:21:26.547Z,14.30
2022-09-24T12:26:31.157Z,14.30
2022-09-24T12:32:16.422Z,14.40
2022-09-24T12:37:23.548Z,14.50
2022-09-24T12:42:33.851Z,14.40
2022-09-24T12:47:46.944Z,14.40
2022-09-24T12:52:49.510Z,14.40
2022-09-24T12:58:06.093Z,14.30
2022-09-24T13:03:35.528Z,14.20
2022-09-24T13:08:41.327Z,14.10
2022-09-24T13:13:44.153Z,14.00
2022-09-24T13:18:58.823Z,13.90
2022-09-24T13:24:11.359Z,13.90
2022-09-24T13:29:26.501Z,13.80
2022-09-24T13:34:30.224Z,13.80
2022-09-24T13:39:50.460Z,13.70
2022-09-24T13:44:55.665Z,13.70
2022-09-24T13:50:13.048Z,13.70
2022-09-24T13:55:22.898Z,13.80
2022-09-24T14:00:27.708Z,13.70
2022-09-24T14:05:33.967Z,13.80
2022-09-24T14:10:36.228Z,13.70
2022-09-24T14:15:38.471Z,13.70
2022-09-24T14:20:40.640Z,13.70
2022-09-24T14:25:42.662Z,13.70
2022-09-24T14:30:53.701Z,13.60
2022-09-24T14:35:57.680Z,13.50
2022-09-24T14:41:08.976Z,13.50
2022-09-24T14:46:32.686Z,13.50
2022-09-24T14:51:35.999Z,13.40
2022-09-24T14:56:37.775Z,13.30
2022-09-24T15:01:39.958Z,13.30
2022-09-24T15:06:50.272Z,13.30
2022-09-24T15:12:44.248Z,13.30
2022-09-24T15:17:49.125Z,13.20
2022-09-24T15:23:16.673Z,13.10
2022-09-24T15:28:18.810Z,13.00
2022-09-24T15:33:20.953Z,13.00
2022-09-24T15:38:22.826Z,13.10
2022-09-24T15:43:25.517Z,13.10
2022-09-24T15:48:28.828Z,13.10
2022-09-24T15:53:31.849Z,13.00
2022-09-24T15:58:33.601Z,13.00
2022-09-24T16:03:35.410Z,13.00
2022-09-24T16:08:37.193Z,12.90
2022-09-24T16:13:38.958Z,12.90
2022-09-24T16:18:40.790Z,12.80
2022-09-24T16:23:42.823Z,12.80
2022-09-24T16:28:44.598Z,12.80
2022-09-24T16:33:46.701Z,12.70
2022-09-24T16:38:48.454Z,12.70
2022-09-24T16:43:55.769Z,12.70
2022-09-24T16:48:57.611Z,12.60
2022-09-24T16:53:59.502Z,12.50
2022-09-24T16:59:01.280Z,12.50
2022-09-24T17:04:03.021Z,12.50
2022-09-24T17:09:23.856Z,12.40
2022-09-24T17:14:25.737Z,12.40
2022-09-24T17:19:27.675Z,12.30
2022-09-24T17:24:29.569Z,12.30
2022-09-24T17:29:31.921Z,12.20
2022-09-24T17:34:33.767Z,12.20
2022-09-24T17:39:35.515Z,12.20
2022-09-24T17:44:37.786Z,12.10
2022-09-24T17:49:39.559Z,12.10
2022-09-24T17:54:41.440Z,12.10
2022-09-24T17:59:43.233Z,12.00
2022-09-24T18:04:44.997Z,12.00
2022-09-24T18:09:46.746Z,11.90
2022-09-24T18:14:48.489Z,11.90
2022-09-24T18:19:50.364Z,11.90
2022-09-24T18:24:52.289Z,11.90
2022-09-24T18:29:54.022Z,11.90
2022-09-24T18:34:55.744Z,11.90
2022-09-24T18:39:58.030Z,11.90
2022-09-24T18:44:59.774Z,11.90
2022-09-24T18:50:01.973Z,11.90
2022-09-24T18:55:03.954Z,11.90
2022-09-24T19:00:26.335Z,11.90
2022-09-24T19:05:28.757Z,11.80
2022-09-24T19:10:32.081Z,11.80
2022-09-24T19:15:38.648Z,11.80
2022-09-24T19:20:45.748Z,11.80
2022-09-24T19:25:47.515Z,11.80
2022-09-24T19:30:50.438Z,11.70
2022-09-24T19:35:57.881Z,11.70
2022-09-24T19:41:01.854Z,11.70
2022-09-24T19:46:07.142Z,11.70
2022-09-24T19:51:17.838Z,11.70
2022-09-24T19:56:22.433Z,11.70
2022-09-24T20:01:30.897Z,11.70
2022-09-24T20:06:35.581Z,11.70
2022-09-24T20:11:37.542Z,11.70
2022-09-24T20:16:42.671Z,11.70
2022-09-24T20:21:44.402Z,11.70
2022-09-24T20:27:04.649Z,11.70
2022-09-24T20:32:10.245Z,11.70
2022-09-24T20:37:12.076Z,11.70
2022-09-24T20:42:14.055Z,11.70
2022-09-24T20:47:15.847Z,11.70
2022-09-24T20:52:17.647Z,11.70
2022-09-24T20:57:19.512Z,11.60
2022-09-24T21:02:21.355Z,11.70
2022-09-24T21:07:23.204Z,11.60
2022-09-24T21:12:25.482Z,11.60
2022-09-24T21:17:27.422Z,11.60
2022-09-24T21:22:29.265Z,11.60
2022-09-24T21:27:31.013Z,11.60
2022-09-24T21:32:33.129Z,11.60
2022-09-24T21:37:35.150Z,11.50
2022-09-24T21:42:37.486Z,11.50
2022-09-24T21:47:39.811Z,11.50
2022-09-24T21:52:43.560Z,11.50
2022-09-24T21:57:45.456Z,11.50
2022-09-24T22:02:47.324Z,11.50
2022-09-24T22:07:49.101Z,11.50
2022-09-24T22:12:50.994Z,11.50
2022-09-24T22:17:52.829Z,11.40
2022-09-24T22:22:54.909Z,11.40
2022-09-24T22:27:56.677Z,11.40
2022-09-24T22:32:58.726Z,11.50
2022-09-24T22:38:00.486Z,11.50
2022-09-24T22:43:02.238Z,11.50
2022-09-24T22:48:04.023Z,11.50
2022-09-24T22:53:05.834Z,11.50
2022-09-24T22:58:07.802Z,11.50
2022-09-24T23:03:09.557Z,11.50
2022-09-24T23:08:11.349Z,11.50
2022-09-24T23:13:13.102Z,11.50
2022-09-24T23:18:14.863Z,11.50
2022-09-24T23:23:16.662Z,11.50
2022-09-24T23:28:18.417Z,11.50
2022-09-24T23:33:20.162Z,11.50
2022-09-24T23:38:22.126Z,11.50
2022-09-24T23:43:24.259Z,11.50
2022-09-24T23:48:26.254Z,11.50
2022-09-24T23:53:28.059Z,11.60
2022-09-24T23:58:30.025Z,11.50
